sensor_id;sensor_type;location;lat;lon;timestamp;P1;durP1;ratioP1;P2;durP2;ratioP2
69463;SDS011;56665;41.106;16.688;2023-08-07T00:01:52;9.85;;;3.55;;
69463;SDS011;56665;41.106;16.688;2023-08-07T00:04:56;12.93;;;3.28;;
69463;SDS011;56665;41.106;16.688;2023-08-07T00:08:01;8.90;;;2.50;;
69463;SDS011;56665;41.106;16.688;2023-08-07T00:11:10;8.15;;;2.60;;
69463;SDS011;56665;41.106;16.688;2023-08-07T00:14:14;10.40;;;2.33;;
69463;SDS011;56665;41.106;16.688;2023-08-07T00:17:17;9.45;;;2.78;;
69463;SDS011;56665;41.106;16.688;2023-08-07T00:20:21;7.97;;;2.22;;
69463;SDS011;56665;41.106;16.688;2023-08-07T00:23:25;8.63;;;2.33;;
69463;SDS011;56665;41.106;16.688;2023-08-07T00:26:29;8.80;;;2.90;;
69463;SDS011;56665;41.106;16.688;2023-08-07T00:29:32;7.47;;;2.20;;
69463;SDS011;56665;41.106;16.688;2023-08-07T00:32:36;8.02;;;2.30;;
69463;SDS011;56665;41.106;16.688;2023-08-07T00:35:40;7.18;;;1.88;;
69463;SDS011;56665;41.106;16.688;2023-08-07T00:38:44;8.60;;;2.43;;
69463;SDS011;56665;41.106;16.688;2023-08-07T00:41:48;5.10;;;2.08;;
69463;SDS011;56665;41.106;16.688;2023-08-07T00:44:51;5.00;;;2.13;;
69463;SDS011;56665;41.106;16.688;2023-08-07T00:47:55;9.23;;;2.25;;
69463;SDS011;56665;41.106;16.688;2023-08-07T00:50:59;6.35;;;1.38;;
69463;SDS011;56665;41.106;16.688;2023-08-07T00:54:03;6.50;;;1.90;;
69463;SDS011;56665;41.106;16.688;2023-08-07T00:57:10;6.10;;;1.85;;
69463;SDS011;56665;41.106;16.688;2023-08-07T01:00:15;5.82;;;1.48;;
69463;SDS011;56665;41.106;16.688;2023-08-07T01:03:20;8.50;;;1.92;;
69463;SDS011;56665;41.106;16.688;2023-08-07T01:06:24;8.60;;;1.88;;
69463;SDS011;56665;41.106;16.688;2023-08-07T01:09:27;8.37;;;2.23;;
69463;SDS011;56665;41.106;16.688;2023-08-07T01:12:33;6.68;;;1.83;;
69463;SDS011;56665;41.106;16.688;2023-08-07T01:15:41;6.93;;;1.67;;
69463;SDS011;56665;41.106;16.688;2023-08-07T01:18:45;7.93;;;2.00;;
69463;SDS011;56665;41.106;16.688;2023-08-07T01:25:11;7.03;;;2.30;;
69463;SDS011;56665;41.106;16.688;2023-08-07T01:31:29;6.80;;;2.15;;
69463;SDS011;56665;41.106;16.688;2023-08-07T01:34:38;6.25;;;2.05;;
69463;SDS011;56665;41.106;16.688;2023-08-07T01:37:44;7.15;;;2.00;;
69463;SDS011;56665;41.106;16.688;2023-08-07T01:40:49;6.00;;;1.60;;
69463;SDS011;56665;41.106;16.688;2023-08-07T01:43:56;5.45;;;2.00;;
69463;SDS011;56665;41.106;16.688;2023-08-07T01:47:01;7.50;;;1.88;;
69463;SDS011;56665;41.106;16.688;2023-08-07T01:50:04;10.05;;;1.92;;
69463;SDS011;56665;41.106;16.688;2023-08-07T01:53:09;5.80;;;1.70;;
69463;SDS011;56665;41.106;16.688;2023-08-07T01:56:12;7.63;;;1.80;;
69463;SDS011;56665;41.106;16.688;2023-08-07T01:59:16;5.97;;;1.75;;
69463;SDS011;56665;41.106;16.688;2023-08-07T02:02:20;5.72;;;1.80;;
69463;SDS011;56665;41.106;16.688;2023-08-07T02:05:23;6.20;;;2.10;;
69463;SDS011;56665;41.106;16.688;2023-08-07T02:08:27;10.18;;;1.90;;
69463;SDS011;56665;41.106;16.688;2023-08-07T02:11:31;6.97;;;1.70;;
69463;SDS011;56665;41.106;16.688;2023-08-07T02:14:35;7.13;;;1.83;;
69463;SDS011;56665;41.106;16.688;2023-08-07T02:17:39;7.43;;;1.90;;
69463;SDS011;56665;41.106;16.688;2023-08-07T02:20:44;9.38;;;2.05;;
69463;SDS011;56665;41.106;16.688;2023-08-07T02:23:49;6.13;;;1.40;;
69463;SDS011;56665;41.106;16.688;2023-08-07T02:26:53;6.40;;;1.67;;
69463;SDS011;56665;41.106;16.688;2023-08-07T02:29:57;7.25;;;1.80;;
69463;SDS011;56665;41.106;16.688;2023-08-07T02:33:01;7.68;;;1.85;;
69463;SDS011;56665;41.106;16.688;2023-08-07T02:36:04;9.88;;;1.90;;
69463;SDS011;56665;41.106;16.688;2023-08-07T02:39:09;6.90;;;1.70;;
69463;SDS011;56665;41.106;16.688;2023-08-07T02:42:13;7.20;;;1.73;;
69463;SDS011;56665;41.106;16.688;2023-08-07T02:45:16;6.97;;;2.03;;
69463;SDS011;56665;41.106;16.688;2023-08-07T02:48:20;6.55;;;2.10;;
69463;SDS011;56665;41.106;16.688;2023-08-07T02:51:24;5.88;;;2.00;;
69463;SDS011;56665;41.106;16.688;2023-08-07T02:54:27;4.80;;;1.52;;
69463;SDS011;56665;41.106;16.688;2023-08-07T02:57:31;7.40;;;2.13;;
69463;SDS011;56665;41.106;16.688;2023-08-07T03:00:35;7.57;;;1.75;;
69463;SDS011;56665;41.106;16.688;2023-08-07T03:03:39;8.68;;;1.73;;
69463;SDS011;56665;41.106;16.688;2023-08-07T03:06:42;8.13;;;1.60;;
69463;SDS011;56665;41.106;16.688;2023-08-07T03:09:46;10.15;;;1.90;;
69463;SDS011;56665;41.106;16.688;2023-08-07T03:12:52;7.47;;;2.07;;
69463;SDS011;56665;41.106;16.688;2023-08-07T03:16:02;5.30;;;1.73;;
69463;SDS011;56665;41.106;16.688;2023-08-07T03:19:08;8.15;;;1.80;;
69463;SDS011;56665;41.106;16.688;2023-08-07T03:22:11;8.55;;;1.70;;
69463;SDS011;56665;41.106;16.688;2023-08-07T03:25:15;5.82;;;1.73;;
69463;SDS011;56665;41.106;16.688;2023-08-07T03:28:19;6.83;;;2.07;;
69463;SDS011;56665;41.106;16.688;2023-08-07T03:31:23;8.45;;;1.90;;
69463;SDS011;56665;41.106;16.688;2023-08-07T03:34:27;12.35;;;2.20;;
69463;SDS011;56665;41.106;16.688;2023-08-07T03:37:31;8.57;;;1.85;;
69463;SDS011;56665;41.106;16.688;2023-08-07T03:40:35;6.53;;;1.60;;
69463;SDS011;56665;41.106;16.688;2023-08-07T03:43:41;7.43;;;2.00;;
69463;SDS011;56665;41.106;16.688;2023-08-07T03:46:45;5.93;;;1.67;;
69463;SDS011;56665;41.106;16.688;2023-08-07T03:49:48;7.43;;;1.92;;
69463;SDS011;56665;41.106;16.688;2023-08-07T03:52:52;6.80;;;1.88;;
69463;SDS011;56665;41.106;16.688;2023-08-07T03:55:57;9.95;;;2.13;;
69463;SDS011;56665;41.106;16.688;2023-08-07T03:59:01;8.33;;;1.47;;
69463;SDS011;56665;41.106;16.688;2023-08-07T04:02:06;8.32;;;1.92;;
69463;SDS011;56665;41.106;16.688;2023-08-07T04:05:10;8.90;;;2.03;;
69463;SDS011;56665;41.106;16.688;2023-08-07T04:08:15;7.97;;;2.65;;
69463;SDS011;56665;41.106;16.688;2023-08-07T04:11:18;8.23;;;1.90;;
69463;SDS011;56665;41.106;16.688;2023-08-07T04:14:22;12.33;;;2.07;;
69463;SDS011;56665;41.106;16.688;2023-08-07T04:17:26;9.68;;;1.90;;
69463;SDS011;56665;41.106;16.688;2023-08-07T04:20:30;11.00;;;2.47;;
69463;SDS011;56665;41.106;16.688;2023-08-07T04:23:34;8.95;;;2.53;;
69463;SDS011;56665;41.106;16.688;2023-08-07T04:26:38;5.60;;;1.90;;
69463;SDS011;56665;41.106;16.688;2023-08-07T04:29:42;9.40;;;2.17;;
69463;SDS011;56665;41.106;16.688;2023-08-07T04:32:46;12.43;;;2.08;;
69463;SDS011;56665;41.106;16.688;2023-08-07T04:35:49;9.02;;;2.30;;
69463;SDS011;56665;41.106;16.688;2023-08-07T04:42:24;9.23;;;2.35;;
69463;SDS011;56665;41.106;16.688;2023-08-07T04:45:27;9.63;;;2.10;;
69463;SDS011;56665;41.106;16.688;2023-08-07T04:48:31;9.05;;;2.67;;
69463;SDS011;56665;41.106;16.688;2023-08-07T04:51:36;11.05;;;2.40;;
69463;SDS011;56665;41.106;16.688;2023-08-07T04:54:39;7.68;;;2.20;;
69463;SDS011;56665;41.106;16.688;2023-08-07T04:57:43;8.68;;;2.45;;
69463;SDS011;56665;41.106;16.688;2023-08-07T05:00:47;10.07;;;2.10;;
69463;SDS011;56665;41.106;16.688;2023-08-07T05:03:51;10.45;;;2.30;;
69463;SDS011;56665;41.106;16.688;2023-08-07T05:06:55;11.43;;;2.10;;
69463;SDS011;56665;41.106;16.688;2023-08-07T05:09:59;11.35;;;2.40;;
69463;SDS011;56665;41.106;16.688;2023-08-07T05:13:04;12.10;;;3.05;;
69463;SDS011;56665;41.106;16.688;2023-08-07T05:16:09;9.53;;;3.27;;
69463;SDS011;56665;41.106;16.688;2023-08-07T05:19:12;10.32;;;3.17;;
69463;SDS011;56665;41.106;16.688;2023-08-07T05:22:16;10.48;;;3.08;;
69463;SDS011;56665;41.106;16.688;2023-08-07T05:25:20;9.30;;;3.30;;
69463;SDS011;56665;41.106;16.688;2023-08-07T05:28:23;11.48;;;3.08;;
69463;SDS011;56665;41.106;16.688;2023-08-07T05:31:27;10.57;;;2.80;;
69463;SDS011;56665;41.106;16.688;2023-08-07T05:34:31;11.52;;;2.65;;
69463;SDS011;56665;41.106;16.688;2023-08-07T05:37:35;8.10;;;2.38;;
69463;SDS011;56665;41.106;16.688;2023-08-07T05:40:39;13.90;;;2.88;;
69463;SDS011;56665;41.106;16.688;2023-08-07T05:43:43;10.20;;;2.67;;
69463;SDS011;56665;41.106;16.688;2023-08-07T05:46:47;15.07;;;2.87;;
69463;SDS011;56665;41.106;16.688;2023-08-07T05:49:51;14.55;;;3.42;;
69463;SDS011;56665;41.106;16.688;2023-08-07T05:52:55;12.00;;;2.83;;
69463;SDS011;56665;41.106;16.688;2023-08-07T05:55:59;8.30;;;2.20;;
69463;SDS011;56665;41.106;16.688;2023-08-07T05:59:03;12.98;;;2.65;;
69463;SDS011;56665;41.106;16.688;2023-08-07T06:02:07;10.60;;;2.90;;
69463;SDS011;56665;41.106;16.688;2023-08-07T06:05:11;7.63;;;2.60;;
69463;SDS011;56665;41.106;16.688;2023-08-07T06:08:18;9.80;;;2.80;;
69463;SDS011;56665;41.106;16.688;2023-08-07T06:11:21;9.30;;;2.35;;
69463;SDS011;56665;41.106;16.688;2023-08-07T06:14:26;11.32;;;2.58;;
69463;SDS011;56665;41.106;16.688;2023-08-07T06:17:30;7.67;;;2.73;;
69463;SDS011;56665;41.106;16.688;2023-08-07T06:20:33;8.98;;;2.53;;
69463;SDS011;56665;41.106;16.688;2023-08-07T06:23:37;9.68;;;2.78;;
69463;SDS011;56665;41.106;16.688;2023-08-07T06:26:41;11.85;;;2.40;;
69463;SDS011;56665;41.106;16.688;2023-08-07T06:29:45;10.48;;;2.55;;
69463;SDS011;56665;41.106;16.688;2023-08-07T06:32:49;9.83;;;2.43;;
69463;SDS011;56665;41.106;16.688;2023-08-07T06:35:53;6.70;;;2.40;;
69463;SDS011;56665;41.106;16.688;2023-08-07T06:38:57;8.95;;;2.40;;
69463;SDS011;56665;41.106;16.688;2023-08-07T06:42:01;11.10;;;2.50;;
69463;SDS011;56665;41.106;16.688;2023-08-07T06:45:10;8.63;;;2.67;;
69463;SDS011;56665;41.106;16.688;2023-08-07T06:48:14;10.40;;;2.40;;
69463;SDS011;56665;41.106;16.688;2023-08-07T06:51:18;9.73;;;2.28;;
69463;SDS011;56665;41.106;16.688;2023-08-07T06:54:21;7.38;;;2.28;;
69463;SDS011;56665;41.106;16.688;2023-08-07T06:57:25;7.80;;;2.40;;
69463;SDS011;56665;41.106;16.688;2023-08-07T07:00:29;9.52;;;2.40;;
69463;SDS011;56665;41.106;16.688;2023-08-07T07:03:33;9.50;;;2.50;;
69463;SDS011;56665;41.106;16.688;2023-08-07T07:06:37;7.25;;;2.28;;
69463;SDS011;56665;41.106;16.688;2023-08-07T07:09:41;9.27;;;2.50;;
69463;SDS011;56665;41.106;16.688;2023-08-07T07:12:44;8.57;;;2.42;;
69463;SDS011;56665;41.106;16.688;2023-08-07T07:15:52;10.52;;;2.80;;
69463;SDS011;56665;41.106;16.688;2023-08-07T07:18:57;8.73;;;2.00;;
69463;SDS011;56665;41.106;16.688;2023-08-07T07:22:03;8.52;;;2.35;;
69463;SDS011;56665;41.106;16.688;2023-08-07T07:25:07;6.68;;;2.28;;
69463;SDS011;56665;41.106;16.688;2023-08-07T07:28:11;8.15;;;2.13;;
69463;SDS011;56665;41.106;16.688;2023-08-07T07:31:14;9.82;;;2.60;;
69463;SDS011;56665;41.106;16.688;2023-08-07T07:34:18;7.70;;;2.43;;
69463;SDS011;56665;41.106;16.688;2023-08-07T07:37:22;7.63;;;2.08;;
69463;SDS011;56665;41.106;16.688;2023-08-07T07:40:26;7.85;;;2.47;;
69463;SDS011;56665;41.106;16.688;2023-08-07T07:43:29;8.77;;;2.22;;
69463;SDS011;56665;41.106;16.688;2023-08-07T07:46:35;10.20;;;2.42;;
69463;SDS011;56665;41.106;16.688;2023-08-07T07:49:39;8.73;;;2.70;;
69463;SDS011;56665;41.106;16.688;2023-08-07T07:52:42;8.50;;;2.35;;
69463;SDS011;56665;41.106;16.688;2023-08-07T07:55:47;7.95;;;2.40;;
69463;SDS011;56665;41.106;16.688;2023-08-07T07:58:51;7.80;;;2.55;;
69463;SDS011;56665;41.106;16.688;2023-08-07T08:01:55;6.43;;;2.90;;
69463;SDS011;56665;41.106;16.688;2023-08-07T08:04:59;6.60;;;2.80;;
69463;SDS011;56665;41.106;16.688;2023-08-07T08:08:02;7.90;;;3.00;;
69463;SDS011;56665;41.106;16.688;2023-08-07T08:11:06;7.15;;;2.63;;
69463;SDS011;56665;41.106;16.688;2023-08-07T08:14:10;7.15;;;3.10;;
69463;SDS011;56665;41.106;16.688;2023-08-07T08:17:13;7.35;;;3.05;;
69463;SDS011;56665;41.106;16.688;2023-08-07T08:20:17;8.77;;;3.40;;
69463;SDS011;56665;41.106;16.688;2023-08-07T08:23:22;7.95;;;3.38;;
69463;SDS011;56665;41.106;16.688;2023-08-07T08:26:26;8.52;;;3.65;;
69463;SDS011;56665;41.106;16.688;2023-08-07T08:29:30;6.10;;;3.00;;
69463;SDS011;56665;41.106;16.688;2023-08-07T08:32:33;7.30;;;3.20;;
69463;SDS011;56665;41.106;16.688;2023-08-07T08:35:37;9.13;;;3.30;;
69463;SDS011;56665;41.106;16.688;2023-08-07T08:38:41;8.38;;;3.78;;
69463;SDS011;56665;41.106;16.688;2023-08-07T08:41:46;9.68;;;3.25;;
69463;SDS011;56665;41.106;16.688;2023-08-07T08:44:54;7.40;;;3.65;;
69463;SDS011;56665;41.106;16.688;2023-08-07T08:48:01;6.95;;;3.60;;
69463;SDS011;56665;41.106;16.688;2023-08-07T08:51:06;6.97;;;3.17;;
69463;SDS011;56665;41.106;16.688;2023-08-07T08:54:13;9.98;;;2.97;;
69463;SDS011;56665;41.106;16.688;2023-08-07T08:57:17;9.02;;;3.67;;
69463;SDS011;56665;41.106;16.688;2023-08-07T09:00:22;7.90;;;3.40;;
69463;SDS011;56665;41.106;16.688;2023-08-07T09:03:28;8.38;;;3.00;;
69463;SDS011;56665;41.106;16.688;2023-08-07T09:06:33;7.33;;;3.00;;
69463;SDS011;56665;41.106;16.688;2023-08-07T09:09:37;8.82;;;3.03;;
69463;SDS011;56665;41.106;16.688;2023-08-07T09:12:45;10.70;;;3.10;;
69463;SDS011;56665;41.106;16.688;2023-08-07T09:15:57;7.50;;;3.40;;
69463;SDS011;56665;41.106;16.688;2023-08-07T09:19:03;7.68;;;2.90;;
69463;SDS011;56665;41.106;16.688;2023-08-07T09:22:07;10.20;;;3.13;;
69463;SDS011;56665;41.106;16.688;2023-08-07T09:25:11;7.35;;;2.83;;
69463;SDS011;56665;41.106;16.688;2023-08-07T09:28:15;10.45;;;3.03;;
69463;SDS011;56665;41.106;16.688;2023-08-07T09:31:20;10.10;;;3.00;;
69463;SDS011;56665;41.106;16.688;2023-08-07T09:34:25;10.95;;;3.00;;
69463;SDS011;56665;41.106;16.688;2023-08-07T09:37:28;12.57;;;3.80;;
69463;SDS011;56665;41.106;16.688;2023-08-07T09:40:32;12.18;;;2.88;;
69463;SDS011;56665;41.106;16.688;2023-08-07T09:43:36;11.77;;;3.10;;
69463;SDS011;56665;41.106;16.688;2023-08-07T09:46:40;9.90;;;2.88;;
69463;SDS011;56665;41.106;16.688;2023-08-07T09:49:45;8.75;;;3.17;;
69463;SDS011;56665;41.106;16.688;2023-08-07T09:52:49;8.03;;;2.97;;
69463;SDS011;56665;41.106;16.688;2023-08-07T09:55:53;10.25;;;3.28;;
69463;SDS011;56665;41.106;16.688;2023-08-07T09:58:57;7.30;;;3.00;;
69463;SDS011;56665;41.106;16.688;2023-08-07T10:02:02;11.48;;;3.13;;
69463;SDS011;56665;41.106;16.688;2023-08-07T10:05:06;11.48;;;2.92;;
69463;SDS011;56665;41.106;16.688;2023-08-07T10:08:12;7.57;;;3.10;;
69463;SDS011;56665;41.106;16.688;2023-08-07T10:11:15;9.43;;;3.00;;
69463;SDS011;56665;41.106;16.688;2023-08-07T10:14:19;12.27;;;2.72;;
69463;SDS011;56665;41.106;16.688;2023-08-07T10:17:23;16.70;;;3.03;;
69463;SDS011;56665;41.106;16.688;2023-08-07T10:20:27;11.48;;;3.38;;
69463;SDS011;56665;41.106;16.688;2023-08-07T10:23:34;9.13;;;2.77;;
69463;SDS011;56665;41.106;16.688;2023-08-07T10:26:43;10.75;;;2.75;;
69463;SDS011;56665;41.106;16.688;2023-08-07T10:29:48;15.65;;;2.97;;
69463;SDS011;56665;41.106;16.688;2023-08-07T10:32:53;11.88;;;2.90;;
69463;SDS011;56665;41.106;16.688;2023-08-07T10:35:57;8.07;;;2.47;;
69463;SDS011;56665;41.106;16.688;2023-08-07T10:39:07;11.80;;;2.40;;
69463;SDS011;56665;41.106;16.688;2023-08-07T10:42:14;8.55;;;2.30;;
69463;SDS011;56665;41.106;16.688;2023-08-07T10:45:19;7.25;;;2.50;;
69463;SDS011;56665;41.106;16.688;2023-08-07T10:48:25;10.43;;;2.45;;
69463;SDS011;56665;41.106;16.688;2023-08-07T10:51:29;9.13;;;2.67;;
69463;SDS011;56665;41.106;16.688;2023-08-07T10:54:39;8.93;;;3.47;;
69463;SDS011;56665;41.106;16.688;2023-08-07T10:57:50;14.75;;;5.35;;
69463;SDS011;56665;41.106;16.688;2023-08-07T11:04:22;6.35;;;2.33;;
69463;SDS011;56665;41.106;16.688;2023-08-07T11:07:29;9.10;;;2.42;;
69463;SDS011;56665;41.106;16.688;2023-08-07T11:10:33;11.90;;;2.63;;
69463;SDS011;56665;41.106;16.688;2023-08-07T11:13:37;8.48;;;3.10;;
69463;SDS011;56665;41.106;16.688;2023-08-07T11:16:40;7.70;;;2.40;;
69463;SDS011;56665;41.106;16.688;2023-08-07T11:19:48;9.75;;;2.58;;
69463;SDS011;56665;41.106;16.688;2023-08-07T11:22:51;8.82;;;2.30;;
69463;SDS011;56665;41.106;16.688;2023-08-07T11:25:57;9.00;;;2.40;;
69463;SDS011;56665;41.106;16.688;2023-08-07T11:29:01;7.28;;;1.90;;
69463;SDS011;56665;41.106;16.688;2023-08-07T11:32:05;7.00;;;2.33;;
69463;SDS011;56665;41.106;16.688;2023-08-07T11:35:09;7.75;;;1.80;;
69463;SDS011;56665;41.106;16.688;2023-08-07T11:41:37;6.97;;;1.77;;
69463;SDS011;56665;41.106;16.688;2023-08-07T11:44:41;7.38;;;2.20;;
69463;SDS011;56665;41.106;16.688;2023-08-07T11:47:45;5.22;;;1.80;;
69463;SDS011;56665;41.106;16.688;2023-08-07T11:50:48;5.50;;;1.88;;
69463;SDS011;56665;41.106;16.688;2023-08-07T11:53:52;8.95;;;1.90;;
69463;SDS011;56665;41.106;16.688;2023-08-07T11:56:59;8.20;;;1.90;;
69463;SDS011;56665;41.106;16.688;2023-08-07T12:00:06;7.82;;;2.08;;
69463;SDS011;56665;41.106;16.688;2023-08-07T12:03:25;7.75;;;1.92;;
69463;SDS011;56665;41.106;16.688;2023-08-07T12:06:32;7.80;;;2.05;;
69463;SDS011;56665;41.106;16.688;2023-08-07T12:09:37;9.50;;;2.22;;
69463;SDS011;56665;41.106;16.688;2023-08-07T12:12:42;8.87;;;2.37;;
69463;SDS011;56665;41.106;16.688;2023-08-07T12:15:49;9.68;;;1.90;;
69463;SDS011;56665;41.106;16.688;2023-08-07T12:18:54;6.43;;;1.55;;
69463;SDS011;56665;41.106;16.688;2023-08-07T12:21:58;6.40;;;1.85;;
69463;SDS011;56665;41.106;16.688;2023-08-07T12:25:02;6.35;;;1.70;;
69463;SDS011;56665;41.106;16.688;2023-08-07T12:28:05;11.53;;;1.97;;
69463;SDS011;56665;41.106;16.688;2023-08-07T12:31:09;6.95;;;1.58;;
69463;SDS011;56665;41.106;16.688;2023-08-07T12:34:13;7.78;;;1.63;;
69463;SDS011;56665;41.106;16.688;2023-08-07T12:37:17;15.77;;;2.88;;
69463;SDS011;56665;41.106;16.688;2023-08-07T12:40:21;6.88;;;1.70;;
69463;SDS011;56665;41.106;16.688;2023-08-07T12:43:26;6.53;;;2.07;;
69463;SDS011;56665;41.106;16.688;2023-08-07T12:46:30;5.35;;;2.03;;
69463;SDS011;56665;41.106;16.688;2023-08-07T12:49:33;7.00;;;2.00;;
69463;SDS011;56665;41.106;16.688;2023-08-07T12:52:37;11.02;;;1.80;;
69463;SDS011;56665;41.106;16.688;2023-08-07T12:55:41;8.38;;;2.15;;
69463;SDS011;56665;41.106;16.688;2023-08-07T12:58:45;9.73;;;2.00;;
69463;SDS011;56665;41.106;16.688;2023-08-07T13:01:49;5.85;;;1.25;;
69463;SDS011;56665;41.106;16.688;2023-08-07T13:04:52;4.82;;;1.30;;
69463;SDS011;56665;41.106;16.688;2023-08-07T13:07:57;6.07;;;1.30;;
69463;SDS011;56665;41.106;16.688;2023-08-07T13:11:01;6.90;;;1.40;;
69463;SDS011;56665;41.106;16.688;2023-08-07T13:14:05;6.20;;;1.43;;
69463;SDS011;56665;41.106;16.688;2023-08-07T13:17:09;7.18;;;1.33;;
69463;SDS011;56665;41.106;16.688;2023-08-07T13:20:13;5.53;;;1.40;;
69463;SDS011;56665;41.106;16.688;2023-08-07T13:23:16;5.90;;;1.48;;
69463;SDS011;56665;41.106;16.688;2023-08-07T13:26:20;4.93;;;1.50;;
69463;SDS011;56665;41.106;16.688;2023-08-07T13:29:24;5.40;;;1.40;;
69463;SDS011;56665;41.106;16.688;2023-08-07T13:32:29;4.60;;;1.60;;
69463;SDS011;56665;41.106;16.688;2023-08-07T13:35:33;5.28;;;1.48;;
69463;SDS011;56665;41.106;16.688;2023-08-07T13:38:37;6.45;;;2.00;;
69463;SDS011;56665;41.106;16.688;2023-08-07T13:41:41;5.75;;;1.90;;
69463;SDS011;56665;41.106;16.688;2023-08-07T13:44:44;5.87;;;1.67;;
69463;SDS011;56665;41.106;16.688;2023-08-07T13:47:48;6.28;;;1.70;;
69463;SDS011;56665;41.106;16.688;2023-08-07T13:50:52;3.95;;;1.60;;
69463;SDS011;56665;41.106;16.688;2023-08-07T13:53:56;6.13;;;1.65;;
69463;SDS011;56665;41.106;16.688;2023-08-07T13:57:00;5.72;;;1.50;;
69463;SDS011;56665;41.106;16.688;2023-08-07T14:00:04;5.93;;;1.60;;
69463;SDS011;56665;41.106;16.688;2023-08-07T14:03:09;5.35;;;1.40;;
69463;SDS011;56665;41.106;16.688;2023-08-07T14:06:13;5.03;;;1.45;;
69463;SDS011;56665;41.106;16.688;2023-08-07T14:09:17;4.13;;;1.38;;
69463;SDS011;56665;41.106;16.688;2023-08-07T14:12:24;7.45;;;1.45;;
69463;SDS011;56665;41.106;16.688;2023-08-07T14:15:28;3.67;;;1.33;;
69463;SDS011;56665;41.106;16.688;2023-08-07T14:18:32;5.38;;;1.50;;
69463;SDS011;56665;41.106;16.688;2023-08-07T14:21:36;4.50;;;1.70;;
69463;SDS011;56665;41.106;16.688;2023-08-07T14:24:39;4.45;;;1.13;;
69463;SDS011;56665;41.106;16.688;2023-08-07T14:27:43;4.20;;;1.80;;
69463;SDS011;56665;41.106;16.688;2023-08-07T14:30:47;4.13;;;1.17;;
69463;SDS011;56665;41.106;16.688;2023-08-07T14:33:51;5.38;;;1.60;;
69463;SDS011;56665;41.106;16.688;2023-08-07T14:36:55;4.15;;;1.20;;
69463;SDS011;56665;41.106;16.688;2023-08-07T14:39:59;6.22;;;1.45;;
69463;SDS011;56665;41.106;16.688;2023-08-07T14:43:02;4.00;;;1.40;;
69463;SDS011;56665;41.106;16.688;2023-08-07T14:46:06;5.00;;;1.60;;
69463;SDS011;56665;41.106;16.688;2023-08-07T14:49:10;4.63;;;1.40;;
69463;SDS011;56665;41.106;16.688;2023-08-07T14:52:14;4.85;;;1.30;;
69463;SDS011;56665;41.106;16.688;2023-08-07T14:55:17;5.15;;;1.90;;
69463;SDS011;56665;41.106;16.688;2023-08-07T14:58:21;3.30;;;1.40;;
69463;SDS011;56665;41.106;16.688;2023-08-07T15:01:25;4.80;;;1.63;;
69463;SDS011;56665;41.106;16.688;2023-08-07T15:04:28;6.45;;;1.40;;
69463;SDS011;56665;41.106;16.688;2023-08-07T15:07:32;6.50;;;1.42;;
69463;SDS011;56665;41.106;16.688;2023-08-07T15:10:37;5.75;;;1.50;;
69463;SDS011;56665;41.106;16.688;2023-08-07T15:13:42;4.25;;;1.80;;
69463;SDS011;56665;41.106;16.688;2023-08-07T15:16:46;5.43;;;1.60;;
69463;SDS011;56665;41.106;16.688;2023-08-07T15:19:50;4.95;;;2.20;;
69463;SDS011;56665;41.106;16.688;2023-08-07T15:22:54;5.80;;;1.45;;
69463;SDS011;56665;41.106;16.688;2023-08-07T15:25:58;5.05;;;1.60;;
69463;SDS011;56665;41.106;16.688;2023-08-07T15:29:03;5.45;;;1.50;;
69463;SDS011;56665;41.106;16.688;2023-08-07T15:32:07;4.70;;;1.40;;
69463;SDS011;56665;41.106;16.688;2023-08-07T15:35:11;5.95;;;1.50;;
69463;SDS011;56665;41.106;16.688;2023-08-07T15:38:15;4.05;;;1.30;;
69463;SDS011;56665;41.106;16.688;2023-08-07T15:41:19;8.15;;;1.50;;
69463;SDS011;56665;41.106;16.688;2023-08-07T15:44:23;5.47;;;1.40;;
69463;SDS011;56665;41.106;16.688;2023-08-07T15:47:27;5.30;;;1.93;;
69463;SDS011;56665;41.106;16.688;2023-08-07T15:50:31;6.75;;;1.50;;
69463;SDS011;56665;41.106;16.688;2023-08-07T15:53:40;4.53;;;1.45;;
69463;SDS011;56665;41.106;16.688;2023-08-07T15:56:43;6.22;;;1.80;;
69463;SDS011;56665;41.106;16.688;2023-08-07T15:59:47;5.95;;;1.67;;
69463;SDS011;56665;41.106;16.688;2023-08-07T16:02:52;5.70;;;1.80;;
69463;SDS011;56665;41.106;16.688;2023-08-07T16:05:56;8.32;;;2.17;;
69463;SDS011;56665;41.106;16.688;2023-08-07T16:09:00;6.28;;;1.70;;
69463;SDS011;56665;41.106;16.688;2023-08-07T16:12:03;5.88;;;1.70;;
69463;SDS011;56665;41.106;16.688;2023-08-07T16:15:07;5.43;;;1.52;;
69463;SDS011;56665;41.106;16.688;2023-08-07T16:18:11;8.40;;;2.00;;
69463;SDS011;56665;41.106;16.688;2023-08-07T16:21:15;6.10;;;2.03;;
69463;SDS011;56665;41.106;16.688;2023-08-07T16:24:19;6.38;;;1.90;;
69463;SDS011;56665;41.106;16.688;2023-08-07T16:27:23;4.93;;;1.40;;
69463;SDS011;56665;41.106;16.688;2023-08-07T16:30:27;4.95;;;1.73;;
69463;SDS011;56665;41.106;16.688;2023-08-07T16:33:30;6.10;;;1.50;;
69463;SDS011;56665;41.106;16.688;2023-08-07T16:36:35;4.72;;;1.48;;
69463;SDS011;56665;41.106;16.688;2023-08-07T16:39:39;4.22;;;1.70;;
69463;SDS011;56665;41.106;16.688;2023-08-07T16:42:43;4.93;;;1.50;;
69463;SDS011;56665;41.106;16.688;2023-08-07T16:45:46;6.40;;;2.03;;
69463;SDS011;56665;41.106;16.688;2023-08-07T16:48:50;5.23;;;1.33;;
69463;SDS011;56665;41.106;16.688;2023-08-07T16:51:54;4.45;;;1.60;;
69463;SDS011;56665;41.106;16.688;2023-08-07T16:55:01;4.38;;;1.55;;
69463;SDS011;56665;41.106;16.688;2023-08-07T16:58:06;5.45;;;1.55;;
69463;SDS011;56665;41.106;16.688;2023-08-07T17:01:10;7.00;;;1.67;;
69463;SDS011;56665;41.106;16.688;2023-08-07T17:04:14;5.30;;;1.60;;
69463;SDS011;56665;41.106;16.688;2023-08-07T17:07:18;6.03;;;1.85;;
69463;SDS011;56665;41.106;16.688;2023-08-07T17:10:22;5.93;;;1.98;;
69463;SDS011;56665;41.106;16.688;2023-08-07T17:13:25;4.97;;;1.67;;
69463;SDS011;56665;41.106;16.688;2023-08-07T17:16:29;4.07;;;1.73;;
69463;SDS011;56665;41.106;16.688;2023-08-07T17:19:32;4.77;;;2.00;;
69463;SDS011;56665;41.106;16.688;2023-08-07T17:22:36;6.63;;;1.90;;
69463;SDS011;56665;41.106;16.688;2023-08-07T17:25:40;6.80;;;1.50;;
69463;SDS011;56665;41.106;16.688;2023-08-07T17:28:44;4.07;;;1.30;;
69463;SDS011;56665;41.106;16.688;2023-08-07T17:31:47;3.75;;;1.60;;
69463;SDS011;56665;41.106;16.688;2023-08-07T17:34:51;3.80;;;1.50;;
69463;SDS011;56665;41.106;16.688;2023-08-07T17:37:58;8.80;;;4.28;;
69463;SDS011;56665;41.106;16.688;2023-08-07T17:41:01;4.28;;;1.83;;
69463;SDS011;56665;41.106;16.688;2023-08-07T17:44:05;3.92;;;1.50;;
69463;SDS011;56665;41.106;16.688;2023-08-07T17:47:09;3.75;;;1.98;;
69463;SDS011;56665;41.106;16.688;2023-08-07T17:50:13;9.37;;;1.60;;
69463;SDS011;56665;41.106;16.688;2023-08-07T17:53:17;5.38;;;2.85;;
69463;SDS011;56665;41.106;16.688;2023-08-07T17:56:21;3.40;;;2.00;;
69463;SDS011;56665;41.106;16.688;2023-08-07T17:59:26;5.00;;;1.75;;
69463;SDS011;56665;41.106;16.688;2023-08-07T18:02:30;3.55;;;2.03;;
69463;SDS011;56665;41.106;16.688;2023-08-07T18:05:34;2.97;;;1.30;;
69463;SDS011;56665;41.106;16.688;2023-08-07T18:08:38;3.13;;;1.15;;
69463;SDS011;56665;41.106;16.688;2023-08-07T18:11:42;3.05;;;1.10;;
69463;SDS011;56665;41.106;16.688;2023-08-07T18:14:46;3.88;;;1.30;;
69463;SDS011;56665;41.106;16.688;2023-08-07T18:17:50;4.05;;;1.33;;
69463;SDS011;56665;41.106;16.688;2023-08-07T18:20:53;4.73;;;1.20;;
69463;SDS011;56665;41.106;16.688;2023-08-07T18:23:57;5.45;;;1.50;;
69463;SDS011;56665;41.106;16.688;2023-08-07T18:27:01;3.60;;;1.42;;
69463;SDS011;56665;41.106;16.688;2023-08-07T18:30:05;5.43;;;1.25;;